sensor_id;sensor_type;location;lat;lon;timestamp;temperature;humidity
5009;DHT22;2523;51.058;6.922;2024-01-15T00:02:08;1.40;99.90
5009;DHT22;2523;51.058;6.922;2024-01-15T00:04:38;1.40;99.90
5009;DHT22;2523;51.058;6.922;2024-01-15T00:07:04;1.30;99.90
5009;DHT22;2523;51.058;6.922;2024-01-15T00:09:29;1.30;99.90
5009;DHT22;2523;51.058;6.922;2024-01-15T00:11:55;1.30;99.90
5009;DHT22;2523;51.058;6.922;2024-01-15T00:14:20;1.30;99.90
5009;DHT22;2523;51.058;6.922;2024-01-15T00:16:46;1.30;99.90
5009;DHT22;2523;51.058;6.922;2024-01-15T00:19:12;1.20;99.90
5009;DHT22;2523;51.058;6.922;2024-01-15T00:21:38;1.20;99.90
5009;DHT22;2523;51.058;6.922;2024-01-15T00:24:03;1.20;99.90
5009;DHT22;2523;51.058;6.922;2024-01-15T00:26:29;1.10;99.90
5009;DHT22;2523;51.058;6.922;2024-01-15T00:28:55;1.10;99.90
5009;DHT22;2523;51.058;6.922;2024-01-15T00:31:20;1.10;99.90
5009;DHT22;2523;51.058;6.922;2024-01-15T00:33:46;1.10;99.90
5009;DHT22;2523;51.058;6.922;2024-01-15T00:36:11;1.10;99.90
5009;DHT22;2523;51.058;6.922;2024-01-15T00:38:37;1.10;99.90
5009;DHT22;2523;51.058;6.922;2024-01-15T00:41:03;1.10;99.90
5009;DHT22;2523;51.058;6.922;2024-01-15T00:43:28;1.10;99.90
5009;DHT22;2523;51.058;6.922;2024-01-15T00:45:54;1.10;99.90
5009;DHT22;2523;51.058;6.922;2024-01-15T00:48:19;1.10;99.90
5009;DHT22;2523;51.058;6.922;2024-01-15T00:50:45;1.10;99.90
5009;DHT22;2523;51.058;6.922;2024-01-15T00:53:10;1.10;99.90
5009;DHT22;2523;51.058;6.922;2024-01-15T00:55:36;1.10;99.90
5009;DHT22;2523;51.058;6.922;2024-01-15T00:58:03;1.00;99.90
5009;DHT22;2523;51.058;6.922;2024-01-15T01:00:28;1.10;99.90
5009;DHT22;2523;51.058;6.922;2024-01-15T01:02:54;1.10;99.90
5009;DHT22;2523;51.058;6.922;2024-01-15T01:05:20;1.10;99.90
5009;DHT22;2523;51.058;6.922;2024-01-15T01:07:46;1.10;99.90
5009;DHT22;2523;51.058;6.922;2024-01-15T01:10:12;1.10;99.90
5009;DHT22;2523;51.058;6.922;2024-01-15T01:12:37;1.10;99.90
5009;DHT22;2523;51.058;6.922;2024-01-15T01:15:03;1.10;99.90
5009;DHT22;2523;51.058;6.922;2024-01-15T01:17:29;1.10;99.90
5009;DHT22;2523;51.058;6.922;2024-01-15T01:19:56;1.10;99.90
5009;DHT22;2523;51.058;6.922;2024-01-15T01:22:21;1.10;99.90
5009;DHT22;2523;51.058;6.922;2024-01-15T01:24:47;1.10;99.90
5009;DHT22;2523;51.058;6.922;2024-01-15T01:27:12;1.20;99.90
5009;DHT22;2523;51.058;6.922;2024-01-15T01:29:38;1.20;99.90
5009;DHT22;2523;51.058;6.922;2024-01-15T01:32:03;1.20;99.90
5009;DHT22;2523;51.058;6.922;2024-01-15T01:34:29;1.10;99.90
5009;DHT22;2523;51.058;6.922;2024-01-15T01:36:55;1.10;99.90
5009;DHT22;2523;51.058;6.922;2024-01-15T01:39:21;1.20;99.90
5009;DHT22;2523;51.058;6.922;2024-01-15T01:41:46;1.20;99.90
5009;DHT22;2523;51.058;6.922;2024-01-15T01:44:12;1.20;99.90
5009;DHT22;2523;51.058;6.922;2024-01-15T01:46:38;1.20;99.90
5009;DHT22;2523;51.058;6.922;2024-01-15T01:49:08;1.20;99.90
5009;DHT22;2523;51.058;6.922;2024-01-15T01:51:34;1.20;99.90
5009;DHT22;2523;51.058;6.922;2024-01-15T01:54:01;1.20;99.90
5009;DHT22;2523;51.058;6.922;2024-01-15T01:56:27;1.20;99.90
5009;DHT22;2523;51.058;6.922;2024-01-15T01:58:53;1.30;99.90
5009;DHT22;2523;51.058;6.922;2024-01-15T02:01:19;1.30;99.90
5009;DHT22;2523;51.058;6.922;2024-01-15T02:03:45;1.30;99.90
5009;DHT22;2523;51.058;6.922;2024-01-15T02:06:11;1.30;99.90
5009;DHT22;2523;51.058;6.922;2024-01-15T02:08:37;1.30;99.90
5009;DHT22;2523;51.058;6.922;2024-01-15T02:11:02;1.30;99.90
5009;DHT22;2523;51.058;6.922;2024-01-15T02:13:28;1.30;99.90
5009;DHT22;2523;51.058;6.922;2024-01-15T02:15:54;1.30;99.90
5009;DHT22;2523;51.058;6.922;2024-01-15T02:18:19;1.30;99.90
5009;DHT22;2523;51.058;6.922;2024-01-15T02:20:45;1.30;99.90
5009;DHT22;2523;51.058;6.922;2024-01-15T02:23:15;1.40;99.90
5009;DHT22;2523;51.058;6.922;2024-01-15T02:25:42;1.40;99.90
5009;DHT22;2523;51.058;6.922;2024-01-15T02:28:14;1.40;99.90
5009;DHT22;2523;51.058;6.922;2024-01-15T02:30:41;1.40;99.90
5009;DHT22;2523;51.058;6.922;2024-01-15T02:33:07;1.40;99.90
5009;DHT22;2523;51.058;6.922;2024-01-15T02:35:34;1.40;99.90
5009;DHT22;2523;51.058;6.922;2024-01-15T02:38:02;1.40;99.90
5009;DHT22;2523;51.058;6.922;2024-01-15T02:40:28;1.40;99.90
5009;DHT22;2523;51.058;6.922;2024-01-15T02:42:53;1.40;99.90
5009;DHT22;2523;51.058;6.922;2024-01-15T02:45:19;1.50;99.90
5009;DHT22;2523;51.058;6.922;2024-01-15T02:47:45;1.50;99.90
5009;DHT22;2523;51.058;6.922;2024-01-15T02:50:10;1.50;99.90
5009;DHT22;2523;51.058;6.922;2024-01-15T02:52:36;1.50;99.90
5009;DHT22;2523;51.058;6.922;2024-01-15T02:55:02;1.50;99.90
5009;DHT22;2523;51.058;6.922;2024-01-15T02:57:27;1.50;99.90
5009;DHT22;2523;51.058;6.922;2024-01-15T02:59:53;1.50;99.90
5009;DHT22;2523;51.058;6.922;2024-01-15T03:02:18;1.50;99.90
5009;DHT22;2523;51.058;6.922;2024-01-15T03:04:44;1.50;99.90
5009;DHT22;2523;51.058;6.922;2024-01-15T03:07:10;1.50;99.90
5009;DHT22;2523;51.058;6.922;2024-01-15T03:09:35;1.50;99.90
5009;DHT22;2523;51.058;6.922;2024-01-15T03:12:01;1.50;99.90
5009;DHT22;2523;51.058;6.922;2024-01-15T03:14:27;1.50;99.90
5009;DHT22;2523;51.058;6.922;2024-01-15T03:16:53;1.50;99.90
5009;DHT22;2523;51.058;6.922;2024-01-15T03:19:18;1.50;99.90
5009;DHT22;2523;51.058;6.922;2024-01-15T03:21:44;1.50;99.90
5009;DHT22;2523;51.058;6.922;2024-01-15T03:24:09;1.50;99.90
5009;DHT22;2523;51.058;6.922;2024-01-15T03:26:35;1.50;99.90
5009;DHT22;2523;51.058;6.922;2024-01-15T03:29:01;1.50;99.90
5009;DHT22;2523;51.058;6.922;2024-01-15T03:31:26;1.50;99.90
5009;DHT22;2523;51.058;6.922;2024-01-15T03:33:52;1.50;99.90
5009;DHT22;2523;51.058;6.922;2024-01-15T03:36:17;1.60;99.90
5009;DHT22;2523;51.058;6.922;2024-01-15T03:38:43;1.60;99.90
5009;DHT22;2523;51.058;6.922;2024-01-15T03:41:08;1.50;99.90
5009;DHT22;2523;51.058;6.922;2024-01-15T03:43:34;1.60;99.90
5009;DHT22;2523;51.058;6.922;2024-01-15T03:45:59;1.50;99.90
5009;DHT22;2523;51.058;6.922;2024-01-15T03:48:25;1.50;99.90
5009;DHT22;2523;51.058;6.922;2024-01-15T03:50:50;1.60;99.90
5009;DHT22;2523;51.058;6.922;2024-01-15T03:53:16;1.50;99.90
5009;DHT22;2523;51.058;6.922;2024-01-15T03:55:42;1.60;99.90
5009;DHT22;2523;51.058;6.922;2024-01-15T03:58:07;1.60;99.90
5009;DHT22;2523;51.058;6.922;2024-01-15T04:00:33;1.50;99.90
5009;DHT22;2523;51.058;6.922;2024-01-15T04:02:59;1.50;99.90
5009;DHT22;2523;51.058;6.922;2024-01-15T04:05:24;1.50;99.90
5009;DHT22;2523;51.058;6.922;2024-01-15T04:07:50;1.60;99.90
5009;DHT22;2523;51.058;6.922;2024-01-15T04:10:15;1.60;99.90
5009;DHT22;2523;51.058;6.922;2024-01-15T04:12:41;1.60;99.90
5009;DHT22;2523;51.058;6.922;2024-01-15T04:15:07;1.60;99.90
5009;DHT22;2523;51.058;6.922;2024-01-15T04:17:32;1.60;99.90
5009;DHT22;2523;51.058;6.922;2024-01-15T04:19:58;1.60;99.90
5009;DHT22;2523;51.058;6.922;2024-01-15T04:22:25;1.70;99.90
5009;DHT22;2523;51.058;6.922;2024-01-15T04:24:51;1.70;99.90
5009;DHT22;2523;51.058;6.922;2024-01-15T04:27:16;1.70;99.90
5009;DHT22;2523;51.058;6.922;2024-01-15T04:29:42;1.70;99.90
5009;DHT22;2523;51.058;6.922;2024-01-15T04:32:10;1.70;99.90
5009;DHT22;2523;51.058;6.922;2024-01-15T04:34:36;1.70;99.90
5009;DHT22;2523;51.058;6.922;2024-01-15T04:37:01;1.70;99.90
5009;DHT22;2523;51.058;6.922;2024-01-15T04:39:27;1.80;99.90
5009;DHT22;2523;51.058;6.922;2024-01-15T04:41:53;1.80;99.90
5009;DHT22;2523;51.058;6.922;2024-01-15T04:44:18;1.80;99.90
5009;DHT22;2523;51.058;6.922;2024-01-15T04:46:44;1.70;99.90
5009;DHT22;2523;51.058;6.922;2024-01-15T04:49:10;1.70;99.90
5009;DHT22;2523;51.058;6.922;2024-01-15T04:51:36;1.60;99.90
5009;DHT22;2523;51.058;6.922;2024-01-15T04:54:02;1.60;99.90
5009;DHT22;2523;51.058;6.922;2024-01-15T04:56:27;1.60;99.90
5009;DHT22;2523;51.058;6.922;2024-01-15T04:58:53;1.70;99.90
5009;DHT22;2523;51.058;6.922;2024-01-15T05:01:18;1.70;99.90
5009;DHT22;2523;51.058;6.922;2024-01-15T05:03:44;1.70;99.90
5009;DHT22;2523;51.058;6.922;2024-01-15T05:06:09;1.70;99.90
5009;DHT22;2523;51.058;6.922;2024-01-15T05:08:35;1.60;99.90
5009;DHT22;2523;51.058;6.922;2024-01-15T05:11:00;1.60;99.90
5009;DHT22;2523;51.058;6.922;2024-01-15T05:13:26;1.60;99.90
5009;DHT22;2523;51.058;6.922;2024-01-15T05:15:52;1.60;99.90
5009;DHT22;2523;51.058;6.922;2024-01-15T05:18:17;1.60;99.90
5009;DHT22;2523;51.058;6.922;2024-01-15T05:20:43;1.60;99.90
5009;DHT22;2523;51.058;6.922;2024-01-15T05:23:09;1.60;99.90
5009;DHT22;2523;51.058;6.922;2024-01-15T05:25:34;1.60;99.90
5009;DHT22;2523;51.058;6.922;2024-01-15T05:28:00;1.70;99.90
5009;DHT22;2523;51.058;6.922;2024-01-15T05:30:25;1.70;99.90
5009;DHT22;2523;51.058;6.922;2024-01-15T05:32:51;1.70;99.90
5009;DHT22;2523;51.058;6.922;2024-01-15T05:35:16;1.70;99.90
5009;DHT22;2523;51.058;6.922;2024-01-15T05:37:44;1.70;99.90
5009;DHT22;2523;51.058;6.922;2024-01-15T05:40:11;1.70;99.90
5009;DHT22;2523;51.058;6.922;2024-01-15T05:42:36;1.70;99.90
5009;DHT22;2523;51.058;6.922;2024-01-15T05:45:02;1.70;99.90
5009;DHT22;2523;51.058;6.922;2024-01-15T05:47:30;1.70;99.90
5009;DHT22;2523;51.058;6.922;2024-01-15T05:49:56;1.70;99.90
5009;DHT22;2523;51.058;6.922;2024-01-15T05:52:22;1.70;99.90
5009;DHT22;2523;51.058;6.922;2024-01-15T05:54:49;1.70;99.90
5009;DHT22;2523;51.058;6.922;2024-01-15T05:57:14;1.70;99.90
5009;DHT22;2523;51.058;6.922;2024-01-15T05:59:40;1.70;99.90
5009;DHT22;2523;51.058;6.922;2024-01-15T06:02:05;1.80;99.90
5009;DHT22;2523;51.058;6.922;2024-01-15T06:04:31;1.70;99.90
5009;DHT22;2523;51.058;6.922;2024-01-15T06:06:56;1.70;99.90
5009;DHT22;2523;51.058;6.922;2024-01-15T06:09:22;1.70;99.90
5009;DHT22;2523;51.058;6.922;2024-01-15T06:11:47;1.70;99.90
5009;DHT22;2523;51.058;6.922;2024-01-15T06:14:13;1.70;99.90
5009;DHT22;2523;51.058;6.922;2024-01-15T06:16:38;1.80;99.90
5009;DHT22;2523;51.058;6.922;2024-01-15T06:19:04;1.70;99.90
5009;DHT22;2523;51.058;6.922;2024-01-15T06:21:29;1.70;99.90
5009;DHT22;2523;51.058;6.922;2024-01-15T06:23:55;1.70;99.90
5009;DHT22;2523;51.058;6.922;2024-01-15T06:26:22;1.80;99.90
5009;DHT22;2523;51.058;6.922;2024-01-15T06:28:48;1.80;99.90
5009;DHT22;2523;51.058;6.922;2024-01-15T06:31:14;1.80;99.90
5009;DHT22;2523;51.058;6.922;2024-01-15T06:33:41;1.80;99.90
5009;DHT22;2523;51.058;6.922;2024-01-15T06:36:07;1.80;99.90
5009;DHT22;2523;51.058;6.922;2024-01-15T06:38:33;1.80;99.90
5009;DHT22;2523;51.058;6.922;2024-01-15T06:40:58;1.80;99.90
5009;DHT22;2523;51.058;6.922;2024-01-15T06:43:24;1.80;99.90
5009;DHT22;2523;51.058;6.922;2024-01-15T06:45:49;1.80;99.90
5009;DHT22;2523;51.058;6.922;2024-01-15T06:48:15;1.90;99.90
5009;DHT22;2523;51.058;6.922;2024-01-15T06:50:42;1.80;99.90
5009;DHT22;2523;51.058;6.922;2024-01-15T06:53:08;1.90;99.90
5009;DHT22;2523;51.058;6.922;2024-01-15T06:55:33;1.90;99.90
5009;DHT22;2523;51.058;6.922;2024-01-15T06:57:59;1.90;99.90
5009;DHT22;2523;51.058;6.922;2024-01-15T07:00:25;1.90;99.90
5009;DHT22;2523;51.058;6.922;2024-01-15T07:02:50;1.80;99.90
5009;DHT22;2523;51.058;6.922;2024-01-15T07:05:17;1.80;99.90
5009;DHT22;2523;51.058;6.922;2024-01-15T07:07:42;1.80;99.90
5009;DHT22;2523;51.058;6.922;2024-01-15T07:10:08;1.80;99.90
5009;DHT22;2523;51.058;6.922;2024-01-15T07:12:33;1.80;99.90
5009;DHT22;2523;51.058;6.922;2024-01-15T07:14:59;1.80;99.90
5009;DHT22;2523;51.058;6.922;2024-01-15T07:17:25;1.80;99.90
5009;DHT22;2523;51.058;6.922;2024-01-15T07:19:50;1.80;99.90
5009;DHT22;2523;51.058;6.922;2024-01-15T07:22:16;1.80;99.90
5009;DHT22;2523;51.058;6.922;2024-01-15T07:24:43;1.80;99.90
5009;DHT22;2523;51.058;6.922;2024-01-15T07:27:08;1.80;99.90
5009;DHT22;2523;51.058;6.922;2024-01-15T07:29:34;1.80;99.90
5009;DHT22;2523;51.058;6.922;2024-01-15T07:32:03;1.80;99.90
5009;DHT22;2523;51.058;6.922;2024-01-15T07:34:29;1.80;99.90
5009;DHT22;2523;51.058;6.922;2024-01-15T07:36:57;1.80;99.90
5009;DHT22;2523;51.058;6.922;2024-01-15T07:39:23;1.80;99.90
5009;DHT22;2523;51.058;6.922;2024-01-15T07:41:50;1.80;99.90
5009;DHT22;2523;51.058;6.922;2024-01-15T07:44:17;1.80;99.90
5009;DHT22;2523;51.058;6.922;2024-01-15T07:46:48;1.80;99.90
5009;DHT22;2523;51.058;6.922;2024-01-15T07:49:16;1.80;99.90
5009;DHT22;2523;51.058;6.922;2024-01-15T07:51:42;1.80;99.90
5009;DHT22;2523;51.058;6.922;2024-01-15T07:54:09;1.80;99.90
5009;DHT22;2523;51.058;6.922;2024-01-15T07:56:53;1.80;99.90
5009;DHT22;2523;51.058;6.922;2024-01-15T07:59:19;1.90;99.90
5009;DHT22;2523;51.058;6.922;2024-01-15T08:01:44;1.90;99.90
5009;DHT22;2523;51.058;6.922;2024-01-15T08:04:10;1.90;99.90
5009;DHT22;2523;51.058;6.922;2024-01-15T08:06:38;1.90;99.90
5009;DHT22;2523;51.058;6.922;2024-01-15T08:09:03;1.90;99.90
5009;DHT22;2523;51.058;6.922;2024-01-15T08:11:29;1.90;99.90
5009;DHT22;2523;51.058;6.922;2024-01-15T08:13:55;1.90;99.90
5009;DHT22;2523;51.058;6.922;2024-01-15T08:16:21;1.90;99.90
5009;DHT22;2523;51.058;6.922;2024-01-15T08:18:47;2.00;99.90
5009;DHT22;2523;51.058;6.922;2024-01-15T08:21:13;2.00;99.90
5009;DHT22;2523;51.058;6.922;2024-01-15T08:23:39;2.00;99.90
5009;DHT22;2523;51.058;6.922;2024-01-15T08:26:05;2.00;99.90
5009;DHT22;2523;51.058;6.922;2024-01-15T08:28:30;2.00;99.90
5009;DHT22;2523;51.058;6.922;2024-01-15T08:30:56;2.00;99.90
5009;DHT22;2523;51.058;6.922;2024-01-15T08:33:22;2.00;99.90
5009;DHT22;2523;51.058;6.922;2024-01-15T08:35:48;2.00;99.90
5009;DHT22;2523;51.058;6.922;2024-01-15T08:38:14;2.10;99.90
5009;DHT22;2523;51.058;6.922;2024-01-15T08:40:40;2.00;99.90
5009;DHT22;2523;51.058;6.922;2024-01-15T08:43:06;2.00;99.90
5009;DHT22;2523;51.058;6.922;2024-01-15T08:45:32;2.00;99.90
5009;DHT22;2523;51.058;6.922;2024-01-15T08:47:58;1.90;99.90
5009;DHT22;2523;51.058;6.922;2024-01-15T08:50:23;1.80;99.90
5009;DHT22;2523;51.058;6.922;2024-01-15T08:52:49;1.80;99.90
5009;DHT22;2523;51.058;6.922;2024-01-15T08:55:14;1.70;99.90
5009;DHT22;2523;51.058;6.922;2024-01-15T08:57:40;1.70;99.90
5009;DHT22;2523;51.058;6.922;2024-01-15T09:00:06;1.60;99.90
5009;DHT22;2523;51.058;6.922;2024-01-15T09:02:34;1.60;99.90
5009;DHT22;2523;51.058;6.922;2024-01-15T09:05:00;1.50;99.90
5009;DHT22;2523;51.058;6.922;2024-01-15T09:07:26;1.50;99.90
5009;DHT22;2523;51.058;6.922;2024-01-15T09:09:52;1.50;99.90
5009;DHT22;2523;51.058;6.922;2024-01-15T09:12:18;1.50;99.90
5009;DHT22;2523;51.058;6.922;2024-01-15T09:14:46;1.50;99.90
5009;DHT22;2523;51.058;6.922;2024-01-15T09:17:12;1.50;99.90
5009;DHT22;2523;51.058;6.922;2024-01-15T09:19:38;1.50;99.90
5009;DHT22;2523;51.058;6.922;2024-01-15T09:22:05;1.50;99.90
5009;DHT22;2523;51.058;6.922;2024-01-15T09:24:31;1.60;99.90
5009;DHT22;2523;51.058;6.922;2024-01-15T09:26:56;1.70;99.90
5009;DHT22;2523;51.058;6.922;2024-01-15T09:29:22;1.70;99.90
5009;DHT22;2523;51.058;6.922;2024-01-15T09:31:52;1.70;99.90
5009;DHT22;2523;51.058;6.922;2024-01-15T09:34:17;1.70;99.90
5009;DHT22;2523;51.058;6.922;2024-01-15T09:36:43;1.60;99.90
5009;DHT22;2523;51.058;6.922;2024-01-15T09:39:09;1.60;99.90
5009;DHT22;2523;51.058;6.922;2024-01-15T09:41:37;1.70;99.90
5009;DHT22;2523;51.058;6.922;2024-01-15T09:44:05;1.70;99.90
5009;DHT22;2523;51.058;6.922;2024-01-15T09:46:33;1.70;99.90
5009;DHT22;2523;51.058;6.922;2024-01-15T09:48:59;1.70;99.90
5009;DHT22;2523;51.058;6.922;2024-01-15T09:51:25;1.70;99.90
5009;DHT22;2523;51.058;6.922;2024-01-15T09:53:54;1.70;99.90
5009;DHT22;2523;51.058;6.922;2024-01-15T09:56:20;1.60;99.90
5009;DHT22;2523;51.058;6.922;2024-01-15T09:58:47;1.60;99.90
5009;DHT22;2523;51.058;6.922;2024-01-15T10:01:14;1.60;99.90
5009;DHT22;2523;51.058;6.922;2024-01-15T10:03:41;1.60;99.90
5009;DHT22;2523;51.058;6.922;2024-01-15T10:06:08;1.70;99.90
5009;DHT22;2523;51.058;6.922;2024-01-15T10:08:36;1.70;99.90
5009;DHT22;2523;51.058;6.922;2024-01-15T10:11:02;1.80;99.90
5009;DHT22;2523;51.058;6.922;2024-01-15T10:13:30;1.80;99.90
5009;DHT22;2523;51.058;6.922;2024-01-15T10:15:56;1.80;99.90
5009;DHT22;2523;51.058;6.922;2024-01-15T10:18:21;1.80;99.90
5009;DHT22;2523;51.058;6.922;2024-01-15T10:20:47;1.80;99.90
5009;DHT22;2523;51.058;6.922;2024-01-15T10:23:14;1.80;99.90
5009;DHT22;2523;51.058;6.922;2024-01-15T10:25:42;1.80;99.90
5009;DHT22;2523;51.058;6.922;2024-01-15T10:28:07;1.70;99.90
5009;DHT22;2523;51.058;6.922;2024-01-15T10:30:34;1.70;99.90
5009;DHT22;2523;51.058;6.922;2024-01-15T10:33:01;1.70;99.90
5009;DHT22;2523;51.058;6.922;2024-01-15T10:35:28;1.80;99.90
5009;DHT22;2523;51.058;6.922;2024-01-15T10:37:54;1.80;99.90
5009;DHT22;2523;51.058;6.922;2024-01-15T10:40:20;1.80;99.90
5009;DHT22;2523;51.058;6.922;2024-01-15T10:42:45;1.80;99.90
5009;DHT22;2523;51.058;6.922;2024-01-15T10:45:13;1.80;99.90
5009;DHT22;2523;51.058;6.922;2024-01-15T10:47:39;1.80;99.90
5009;DHT22;2523;51.058;6.922;2024-01-15T10:50:05;1.80;99.90
5009;DHT22;2523;51.058;6.922;2024-01-15T10:52:36;1.80;99.90
5009;DHT22;2523;51.058;6.922;2024-01-15T10:55:06;1.80;99.90
5009;DHT22;2523;51.058;6.922;2024-01-15T10:57:32;1.90;99.90
5009;DHT22;2523;51.058;6.922;2024-01-15T10:59:58;1.90;99.90
5009;DHT22;2523;51.058;6.922;2024-01-15T11:02:25;2.00;99.90
5009;DHT22;2523;51.058;6.922;2024-01-15T11:04:51;2.20;99.90
5009;DHT22;2523;51.058;6.922;2024-01-15T11:07:17;2.20;99.90
5009;DHT22;2523;51.058;6.922;2024-01-15T11:09:45;2.10;99.90
5009;DHT22;2523;51.058;6.922;2024-01-15T11:12:18;2.10;99.90
5009;DHT22;2523;51.058;6.922;2024-01-15T11:14:49;2.10;99.90
5009;DHT22;2523;51.058;6.922;2024-01-15T11:17:16;2.10;99.90
5009;DHT22;2523;51.058;6.922;2024-01-15T11:22:10;2.20;99.90
5009;DHT22;2523;51.058;6.922;2024-01-15T11:24:41;2.20;99.90
5009;DHT22;2523;51.058;6.922;2024-01-15T11:27:07;2.30;99.90
5009;DHT22;2523;51.058;6.922;2024-01-15T11:29:35;2.40;99.90
5009;DHT22;2523;51.058;6.922;2024-01-15T11:37:18;2.40;99.90
5009;DHT22;2523;51.058;6.922;2024-01-15T11:39:44;2.40;99.90
5009;DHT22;2523;51.058;6.922;2024-01-15T11:42:11;2.30;99.90
5009;DHT22;2523;51.058;6.922;2024-01-15T11:44:38;2.30;99.90
5009;DHT22;2523;51.058;6.922;2024-01-15T11:47:06;2.30;99.90
5009;DHT22;2523;51.058;6.922;2024-01-15T11:49:59;2.30;99.90
5009;DHT22;2523;51.058;6.922;2024-01-15T11:52:37;2.30;99.90
5009;DHT22;2523;51.058;6.922;2024-01-15T11:55:11;2.30;99.90
5009;DHT22;2523;51.058;6.922;2024-01-15T11:57:47;2.30;99.90
5009;DHT22;2523;51.058;6.922;2024-01-15T12:00:15;2.30;99.90
5009;DHT22;2523;51.058;6.922;2024-01-15T12:02:41;2.30;99.90
5009;DHT22;2523;51.058;6.922;2024-01-15T12:05:09;2.40;99.90
5009;DHT22;2523;51.058;6.922;2024-01-15T12:07:34;2.50;99.90
5009;DHT22;2523;51.058;6.922;2024-01-15T12:10:01;2.60;99.90
5009;DHT22;2523;51.058;6.922;2024-01-15T12:15:09;3.70;99.90
5009;DHT22;2523;51.058;6.922;2024-01-15T12:17:35;3.90;99.90
5009;DHT22;2523;51.058;6.922;2024-01-15T12:20:03;3.90;99.90
5009;DHT22;2523;51.058;6.922;2024-01-15T12:22:29;4.30;99.90
5009;DHT22;2523;51.058;6.922;2024-01-15T12:24:55;4.50;99.90
5009;DHT22;2523;51.058;6.922;2024-01-15T12:27:21;4.40;99.90
5009;DHT22;2523;51.058;6.922;2024-01-15T12:29:47;4.00;99.90
5009;DHT22;2523;51.058;6.922;2024-01-15T12:32:13;3.60;99.90
5009;DHT22;2523;51.058;6.922;2024-01-15T12:34:38;3.50;99.90
5009;DHT22;2523;51.058;6.922;2024-01-15T12:37:07;3.20;99.90
5009;DHT22;2523;51.058;6.922;2024-01-15T12:39:34;3.00;99.90
5009;DHT22;2523;51.058;6.922;2024-01-15T12:42:01;2.90;99.90
5009;DHT22;2523;51.058;6.922;2024-01-15T12:44:28;2.80;99.90
5009;DHT22;2523;51.058;6.922;2024-01-15T12:46:57;2.80;99.90
5009;DHT22;2523;51.058;6.922;2024-01-15T12:49:24;2.70;99.90
5009;DHT22;2523;51.058;6.922;2024-01-15T12:51:57;2.70;99.90
5009;DHT22;2523;51.058;6.922;2024-01-15T12:54:23;2.60;99.90
5009;DHT22;2523;51.058;6.922;2024-01-15T12:56:50;2.60;99.90
5009;DHT22;2523;51.058;6.922;2024-01-15T12:59:16;2.60;99.90
5009;DHT22;2523;51.058;6.922;2024-01-15T13:01:42;2.60;99.90
5009;DHT22;2523;51.058;6.922;2024-01-15T13:04:08;2.60;99.90
5009;DHT22;2523;51.058;6.922;2024-01-15T13:06:34;2.60;99.90
5009;DHT22;2523;51.058;6.922;2024-01-15T13:09:00;2.60;99.90
5009;DHT22;2523;51.058;6.922;2024-01-15T13:11:27;2.60;99.90
5009;DHT22;2523;51.058;6.922;2024-01-15T13:13:53;2.60;99.90
5009;DHT22;2523;51.058;6.922;2024-01-15T13:16:19;2.60;99.90
5009;DHT22;2523;51.058;6.922;2024-01-15T13:18:46;2.60;99.90
5009;DHT22;2523;51.058;6.922;2024-01-15T13:21:11;2.60;99.90
5009;DHT22;2523;51.058;6.922;2024-01-15T13:23:38;2.60;99.90
5009;DHT22;2523;51.058;6.922;2024-01-15T13:26:04;2.70;99.90
5009;DHT22;2523;51.058;6.922;2024-01-15T13:28:30;2.70;99.90
5009;DHT22;2523;51.058;6.922;2024-01-15T13:30:56;2.70;99.90
5009;DHT22;2523;51.058;6.922;2024-01-15T13:33:21;2.70;99.90
5009;DHT22;2523;51.058;6.922;2024-01-15T13:35:48;2.60;99.90
5009;DHT22;2523;51.058;6.922;2024-01-15T13:38:17;2.60;99.90
5009;DHT22;2523;51.058;6.922;2024-01-15T13:40:43;2.60;99.90
5009;DHT22;2523;51.058;6.922;2024-01-15T13:43:11;2.60;99.90
5009;DHT22;2523;51.058;6.922;2024-01-15T13:45:36;2.60;99.90
5009;DHT22;2523;51.058;6.922;2024-01-15T13:48:03;2.60;99.90
5009;DHT22;2523;51.058;6.922;2024-01-15T13:50:31;2.60;99.90
5009;DHT22;2523;51.058;6.922;2024-01-15T13:52:56;2.60;99.90
5009;DHT22;2523;51.058;6.922;2024-01-15T13:55:22;2.60;99.90
5009;DHT22;2523;51.058;6.922;2024-01-15T13:57:48;2.50;99.90
5009;DHT22;2523;51.058;6.922;2024-01-15T14:00:14;2.50;99.90
5009;DHT22;2523;51.058;6.922;2024-01-15T14:02:44;2.50;99.90
5009;DHT22;2523;51.058;6.922;2024-01-15T14:05:10;2.40;99.90
5009;DHT22;2523;51.058;6.922;2024-01-15T14:07:40;2.40;99.90
5009;DHT22;2523;51.058;6.922;2024-01-15T14:10:07;2.30;99.90
5009;DHT22;2523;51.058;6.922;2024-01-15T14:12:34;2.30;99.90
5009;DHT22;2523;51.058;6.922;2024-01-15T14:15:00;2.30;99.90
5009;DHT22;2523;51.058;6.922;2024-01-15T14:17:27;2.30;99.90
5009;DHT22;2523;51.058;6.922;2024-01-15T14:19:52;2.30;99.90
5009;DHT22;2523;51.058;6.922;2024-01-15T14:22:18;2.30;99.90
5009;DHT22;2523;51.058;6.922;2024-01-15T14:24:44;2.30;99.90
5009;DHT22;2523;51.058;6.922;2024-01-15T14:27:10;2.30;99.90
5009;DHT22;2523;51.058;6.922;2024-01-15T14:29:35;2.30;99.90
5009;DHT22;2523;51.058;6.922;2024-01-15T14:32:01;2.30;99.90
5009;DHT22;2523;51.058;6.922;2024-01-15T14:34:28;2.30;99.90
5009;DHT22;2523;51.058;6.922;2024-01-15T14:36:53;2.40;99.90
5009;DHT22;2523;51.058;6.922;2024-01-15T14:39:21;2.40;99.90
5009;DHT22;2523;51.058;6.922;2024-01-15T14:41:46;2.40;99.90
5009;DHT22;2523;51.058;6.922;2024-01-15T14:44:12;2.40;99.90
5009;DHT22;2523;51.058;6.922;2024-01-15T14:46:38;2.40;99.90
5009;DHT22;2523;51.058;6.922;2024-01-15T14:49:04;2.40;99.90
5009;DHT22;2523;51.058;6.922;2024-01-15T14:51:31;2.30;99.90
5009;DHT22;2523;51.058;6.922;2024-01-15T14:53:57;2.30;99.90
5009;DHT22;2523;51.058;6.922;2024-01-15T14:56:23;2.30;99.90
5009;DHT22;2523;51.058;6.922;2024-01-15T14:58:48;2.30;99.90
5009;DHT22;2523;51.058;6.922;2024-01-15T15:01:14;2.30;99.90
5009;DHT22;2523;51.058;6.922;2024-01-15T15:03:40;2.30;99.90
5009;DHT22;2523;51.058;6.922;2024-01-15T15:06:06;2.30;99.90
5009;DHT22;2523;51.058;6.922;2024-01-15T15:08:34;2.30;99.90
5009;DHT22;2523;51.058;6.922;2024-01-15T15:11:00;2.30;99.90
5009;DHT22;2523;51.058;6.922;2024-01-15T15:13:26;2.30;99.90
5009;DHT22;2523;51.058;6.922;2024-01-15T15:15:52;2.20;99.90
5009;DHT22;2523;51.058;6.922;2024-01-15T15:18:20;2.30;99.90
5009;DHT22;2523;51.058;6.922;2024-01-15T15:20:47;2.20;99.90
5009;DHT22;2523;51.058;6.922;2024-01-15T15:23:12;2.20;99.90
5009;DHT22;2523;51.058;6.922;2024-01-15T15:25:38;2.20;99.90
5009;DHT22;2523;51.058;6.922;2024-01-15T15:28:03;2.20;99.90
5009;DHT22;2523;51.058;6.922;2024-01-15T15:30:31;2.20;99.90
5009;DHT22;2523;51.058;6.922;2024-01-15T15:32:56;2.20;99.90
5009;DHT22;2523;51.058;6.922;2024-01-15T15:35:22;2.10;99.90
5009;DHT22;2523;51.058;6.922;2024-01-15T15:37:47;2.00;99.90
5009;DHT22;2523;51.058;6.922;2024-01-15T15:40:13;1.90;99.90
5009;DHT22;2523;51.058;6.922;2024-01-15T15:42:39;1.90;99.90
5009;DHT22;2523;51.058;6.922;2024-01-15T15:45:04;1.90;99.90
5009;DHT22;2523;51.058;6.922;2024-01-15T15:47:30;1.90;99.90
5009;DHT22;2523;51.058;6.922;2024-01-15T15:49:56;1.80;99.90
5009;DHT22;2523;51.058;6.922;2024-01-15T15:52:22;1.80;99.90
5009;DHT22;2523;51.058;6.922;2024-01-15T15:54:47;1.80;99.90
5009;DHT22;2523;51.058;6.922;2024-01-15T15:57:13;1.70;99.90
5009;DHT22;2523;51.058;6.922;2024-01-15T15:59:38;1.60;99.90
5009;DHT22;2523;51.058;6.922;2024-01-15T16:02:04;1.60;99.90
5009;DHT22;2523;51.058;6.922;2024-01-15T16:04:29;1.60;99.90
5009;DHT22;2523;51.058;6.922;2024-01-15T16:06:55;1.60;99.90
5009;DHT22;2523;51.058;6.922;2024-01-15T16:09:21;1.60;99.90
5009;DHT22;2523;51.058;6.922;2024-01-15T16:11:47;1.60;99.90
5009;DHT22;2523;51.058;6.922;2024-01-15T16:14:13;1.50;99.90
5009;DHT22;2523;51.058;6.922;2024-01-15T16:16:39;1.50;99.90
5009;DHT22;2523;51.058;6.922;2024-01-15T16:19:04;1.50;99.90
5009;DHT22;2523;51.058;6.922;2024-01-15T16:21:30;1.50;99.90